Time;durP1;ratioP1;P1;durP2;ratioP2;P2;SDS_P1;SDS_P2;PMS_P1;PMS_P2;Temp;Humidity;BMP_temperature;BMP_pressure;BME280_temperature;BME280_humidity;BME280_pressure;Samples;Min_cycle;Max_cycle;Signal;HPM_P1;HPM_P2
2021/12/15 00:02:50;;;;;;;27.47;14.37;;;5.90;99.90;;;;;;8306887;28;20192;-68
2021/12/15 00:06:51;;;;;;;24.53;13.93;;;5.90;99.90;;;;;;8322556;28;20253;-67
2021/12/15 00:10:55;;;;;;;29.83;14.63;;;6.00;99.90;;;;;;8300144;28;20240;-68
2021/12/15 00:14:56;;;;;;;32.53;15.40;;;6.00;99.90;;;;;;8323663;28;20183;-67
2021/12/15 00:18:57;;;;;;;25.63;14.43;;;6.00;99.90;;;;;;8324645;28;20216;-68
2021/12/15 00:22:59;;;;;;;28.17;14.73;;;5.90;99.90;;;;;;8304335;28;20207;-67
2021/12/15 00:26:59;;;;;;;31.57;15.70;;;6.00;99.90;;;;;;8325055;28;20242;-67
2021/12/15 00:31:01;;;;;;;30.80;15.13;;;6.00;99.90;;;;;;8303987;28;20325;-67
2021/12/15 00:35:03;;;;;;;28.37;15.10;;;6.00;99.90;;;;;;8331827;28;20183;-67
2021/12/15 00:39:05;;;;;;;32.70;15.37;;;6.00;99.90;;;;;;8309544;28;20174;-67
2021/12/15 00:43:07;;;;;;;26.60;13.83;;;6.00;99.90;;;;;;8321936;28;20194;-67
2021/12/15 00:47:08;;;;;;;34.47;15.20;;;6.00;99.90;;;;;;8295897;28;20195;-68
2021/12/15 00:51:10;;;;;;;29.97;13.97;;;6.00;99.90;;;;;;8301198;28;20214;-67
2021/12/15 00:55:14;;;;;;;28.63;13.50;;;6.00;99.90;;;;;;8321816;28;20182;-67
2021/12/15 00:59:15;;;;;;;31.03;13.93;;;6.00;99.90;;;;;;8306987;28;20274;-68
2021/12/15 01:03:16;;;;;;;28.47;14.57;;;6.00;99.90;;;;;;8320442;28;20185;-67
2021/12/15 01:07:18;;;;;;;30.13;14.20;;;6.00;99.90;;;;;;8322303;28;20194;-68
2021/12/15 01:11:43;;;;;;;39.40;15.43;;;6.10;99.90;;;;;;8326859;28;20296;-67
2021/12/15 01:20:09;;;;;;;32.23;15.40;;;6.10;99.90;;;;;;8340156;28;20263;-67
2021/12/15 01:24:11;;;;;;;31.23;14.27;;;6.10;99.90;;;;;;8311507;28;20214;-68
2021/12/15 01:28:12;;;;;;;31.37;14.30;;;6.10;99.90;;;;;;8310797;28;20191;-67
2021/12/15 01:32:14;;;;;;;29.80;12.87;;;6.10;99.90;;;;;;8306646;28;20230;-68
2021/12/15 01:36:15;;;;;;;29.10;13.23;;;6.10;99.90;;;;;;8329661;28;20186;-68
2021/12/15 01:40:28;;;;;;;29.87;14.50;;;6.10;99.90;;;;;;8332764;28;20269;-68
2021/12/15 01:48:31;;;;;;;28.77;13.70;;;6.10;99.90;;;;;;8323988;28;20195;-68
2021/12/15 01:52:35;;;;;;;35.40;15.33;;;6.20;99.90;;;;;;8302315;28;20210;-68
2021/12/15 01:56:37;;;;;;;33.87;15.53;;;6.20;99.90;;;;;;8336096;28;20193;-67
2021/12/15 02:00:47;;;;;;;31.83;14.27;;;6.20;99.90;;;;;;8328577;28;20190;-68
2021/12/15 02:04:49;;;;;;;30.00;13.60;;;6.20;99.90;;;;;;8331125;28;20186;-67
2021/12/15 02:08:50;;;;;;;30.87;13.70;;;6.30;99.90;;;;;;8322581;28;20193;-68
2021/12/15 02:12:52;;;;;;;32.77;15.13;;;6.30;99.90;;;;;;8309356;28;20210;-67
2021/12/15 02:16:53;;;;;;;30.27;14.50;;;6.30;99.90;;;;;;8333080;28;20183;-67
2021/12/15 02:20:58;;;;;;;32.13;14.83;;;6.30;99.90;;;;;;8309558;28;20278;-68
2021/12/15 02:25:01;;;;;;;35.23;15.00;;;6.30;99.90;;;;;;8302295;28;20210;-68
2021/12/15 02:29:05;;;;;;;29.60;12.13;;;6.30;99.90;;;;;;8320649;28;20182;-67
2021/12/15 02:33:37;;;;;;;30.53;13.53;;;6.30;99.90;;;;;;8307251;28;20206;-68
2021/12/15 02:37:31;;;;;;;30.20;13.80;;;6.30;99.90;;;;;;8320855;28;20191;-68
2021/12/15 02:41:33;;;;;;;32.40;14.43;;;6.30;99.90;;;;;;8304425;28;20269;-68
2021/12/15 02:45:34;;;;;;;35.13;14.57;;;6.30;99.90;;;;;;8320158;28;20288;-68
2021/12/15 02:49:35;;;;;;;34.17;15.90;;;6.40;99.90;;;;;;8317649;28;20213;-68
2021/12/15 02:53:36;;;;;;;29.87;14.30;;;6.40;99.90;;;;;;8303247;28;20185;-68
2021/12/15 02:57:37;;;;;;;29.47;14.13;;;6.40;99.90;;;;;;8320793;28;20232;-68
2021/12/15 03:05:58;;;;;;;30.67;13.50;;;6.40;99.90;;;;;;8326023;28;20218;-68
2021/12/15 03:18:38;;;;;;;39.80;15.23;;;6.40;99.90;;;;;;8315987;28;20197;-69
2021/12/15 03:22:39;;;;;;;33.83;15.47;;;6.40;99.90;;;;;;8318198;28;20210;-68
2021/12/15 03:26:50;;;;;;;33.00;14.93;;;6.40;99.90;;;;;;8319037;28;20196;-69
2021/12/15 03:39:17;;;;;;;29.20;13.73;;;6.40;99.90;;;;;;8320895;28;20193;-67
2021/12/15 03:43:17;;;;;;;30.73;13.93;;;6.40;99.90;;;;;;8323181;28;20258;-67
2021/12/15 03:47:26;;;;;;;29.60;12.67;;;6.40;99.90;;;;;;8313777;28;20190;-67
2021/12/15 03:51:27;;;;;;;24.17;12.03;;;6.40;99.90;;;;;;8310782;28;20236;-66
2021/12/15 03:55:30;;;;;;;27.50;12.70;;;6.40;99.90;;;;;;8308658;28;20182;-67
2021/12/15 03:59:33;;;;;;;27.50;12.20;;;6.40;99.90;;;;;;8307415;28;20233;-66
2021/12/15 04:03:43;;;;;;;26.47;12.13;;;6.50;99.90;;;;;;8327230;28;20181;-67
2021/12/15 04:07:45;;;;;;;25.63;12.30;;;6.50;99.90;;;;;;8318046;28;20182;-67
2021/12/15 04:11:46;;;;;;;23.17;11.77;;;6.40;99.90;;;;;;8316145;28;20218;-67
2021/12/15 04:15:56;;;;;;;27.23;12.53;;;6.40;99.90;;;;;;8328671;28;20193;-67
2021/12/15 04:20:04;;;;;;;27.43;11.43;;;6.40;99.90;;;;;;8307345;28;20210;-67
2021/12/15 04:24:06;;;;;;;23.53;11.07;;;6.40;99.90;;;;;;8310875;28;20217;-67
2021/12/15 04:28:10;;;;;;;24.47;11.50;;;6.40;99.90;;;;;;8312853;28;20190;-66
2021/12/15 04:32:22;;;;;;;23.50;11.53;;;6.50;99.90;;;;;;8317150;28;20250;-67
2021/12/15 04:36:27;;;;;;;26.80;13.37;;;6.50;99.90;;;;;;8333929;28;20186;-67
2021/12/15 04:40:28;;;;;;;22.83;11.80;;;6.50;99.90;;;;;;8327053;28;20183;-67
2021/12/15 04:44:31;;;;;;;23.77;10.77;;;6.50;99.90;;;;;;8332861;28;20213;-66
2021/12/15 04:48:34;;;;;;;27.00;12.47;;;6.50;99.90;;;;;;8332749;28;20191;-67
2021/12/15 04:52:36;;;;;;;25.80;12.33;;;6.60;99.90;;;;;;8317319;28;20214;-67
2021/12/15 04:56:37;;;;;;;23.80;11.63;;;6.60;99.90;;;;;;8319579;28;20190;-67
2021/12/15 05:00:46;;;;;;;26.03;11.93;;;6.60;99.90;;;;;;8316919;28;20440;-67
2021/12/15 05:04:49;;;;;;;22.83;11.00;;;6.60;99.90;;;;;;8322263;28;20243;-68
2021/12/15 05:08:50;;;;;;;32.20;16.73;;;6.70;99.90;;;;;;8330157;28;20205;-67
2021/12/15 05:12:51;;;;;;;33.87;14.63;;;6.70;99.90;;;;;;8302137;28;20297;-68
2021/12/15 05:16:53;;;;;;;32.83;14.33;;;6.70;99.90;;;;;;8319316;28;20244;-67
2021/12/15 05:20:54;;;;;;;34.00;13.67;;;6.70;99.90;;;;;;8326579;28;20183;-67
2021/12/15 05:24:55;;;;;;;23.43;11.83;;;6.70;99.90;;;;;;8348812;28;20211;-68
2021/12/15 05:28:59;;;;;;;24.87;11.97;;;6.70;99.90;;;;;;8327579;28;20201;-67
2021/12/15 05:33:00;;;;;;;26.60;11.37;;;6.70;99.90;;;;;;8308319;28;20214;-67
2021/12/15 05:37:04;;;;;;;25.50;12.10;;;6.70;99.90;;;;;;8305845;28;20191;-67
2021/12/15 05:41:05;;;;;;;26.77;11.50;;;6.70;99.90;;;;;;8306737;28;20221;-71
2021/12/15 05:45:07;;;;;;;23.63;13.30;;;6.80;99.90;;;;;;8322763;28;20454;-67
2021/12/15 05:49:09;;;;;;;26.47;12.93;;;6.80;99.90;;;;;;8305643;28;20185;-67
2021/12/15 05:53:10;;;;;;;22.87;11.60;;;6.80;99.90;;;;;;8330075;28;20362;-68
2021/12/15 05:57:11;;;;;;;20.77;11.43;;;6.80;99.90;;;;;;8316513;28;20187;-68
2021/12/15 06:01:12;;;;;;;25.73;11.67;;;6.80;99.90;;;;;;8332271;28;20185;-67
2021/12/15 06:05:14;;;;;;;27.70;13.43;;;6.80;99.90;;;;;;8311572;28;20189;-67
2021/12/15 06:09:15;;;;;;;23.33;11.67;;;6.80;99.90;;;;;;8327659;28;20523;-68
2021/12/15 06:13:16;;;;;;;23.27;12.00;;;6.80;99.90;;;;;;8310992;28;20210;-68
2021/12/15 06:17:17;;;;;;;23.53;12.50;;;6.80;99.90;;;;;;8319497;28;20186;-68
2021/12/15 06:21:24;;;;;;;23.50;12.17;;;6.80;99.90;;;;;;8331798;28;20197;-68
2021/12/15 06:25:25;;;;;;;22.50;14.03;;;6.80;99.90;;;;;;8303144;28;20214;-65
2021/12/15 06:29:27;;;;;;;25.13;13.00;;;6.90;99.90;;;;;;8326832;28;20193;-66
2021/12/15 06:33:29;;;;;;;23.07;12.30;;;6.90;99.90;;;;;;8307813;28;20181;-67
2021/12/15 06:37:30;;;;;;;19.30;11.67;;;6.90;99.90;;;;;;8321627;28;20201;-67
2021/12/15 06:41:31;;;;;;;21.23;11.80;;;6.90;99.90;;;;;;8321826;28;20182;-67
2021/12/15 06:45:38;;;;;;;21.07;12.13;;;6.80;99.90;;;;;;8306542;28;20263;-67
2021/12/15 06:58:23;;;;;;;28.60;15.10;;;6.80;99.90;;;;;;8319731;28;20190;-68
2021/12/15 07:02:27;;;;;;;26.57;14.37;;;6.80;99.90;;;;;;8302829;28;20233;-67
2021/12/15 07:06:27;;;;;;;24.53;12.90;;;6.90;99.90;;;;;;8299889;28;20194;-66
2021/12/15 07:10:32;;;;;;;23.37;13.20;;;6.80;99.90;;;;;;8320458;28;20300;-67
2021/12/15 07:14:33;;;;;;;21.17;12.70;;;6.80;99.90;;;;;;8309001;28;20197;-66
2021/12/15 07:18:46;;;;;;;17.93;10.93;;;6.90;99.90;;;;;;8308572;28;20190;-67
2021/12/15 07:22:47;;;;;;;26.43;12.93;;;6.90;99.90;;;;;;8304844;28;20224;-68
2021/12/15 07:26:49;;;;;;;22.00;13.00;;;6.90;99.90;;;;;;8301404;28;20201;-68
2021/12/15 07:30:50;;;;;;;21.43;12.40;;;6.90;99.90;;;;;;8303526;28;20214;-68
2021/12/15 07:34:51;;;;;;;20.80;14.10;;;6.90;99.90;;;;;;8323464;28;20224;-67
2021/12/15 07:38:54;;;;;;;20.47;14.50;;;7.00;99.90;;;;;;8322908;28;20194;-67
2021/12/15 07:43:06;;;;;;;23.10;13.77;;;7.00;99.90;;;;;;8332231;28;20217;-66
2021/12/15 07:47:07;;;;;;;22.83;13.87;;;7.00;99.90;;;;;;8301290;28;20194;-67
2021/12/15 07:51:10;;;;;;;22.03;13.27;;;7.00;99.90;;;;;;8333296;28;20221;-67
2021/12/15 07:55:13;;;;;;;22.30;13.67;;;7.00;99.90;;;;;;8318432;28;20247;-67
2021/12/15 07:59:14;;;;;;;22.43;13.00;;;7.00;99.90;;;;;;8295533;28;20201;-66
2021/12/15 08:03:16;;;;;;;21.40;15.17;;;7.10;99.90;;;;;;8303088;28;20195;-66
2021/12/15 08:07:17;;;;;;;22.03;12.67;;;7.10;99.90;;;;;;8307172;28;20186;-66
2021/12/15 08:11:18;;;;;;;22.50;13.90;;;7.10;99.90;;;;;;8326098;28;20225;-67
2021/12/15 08:15:19;;;;;;;23.33;15.53;;;7.20;99.90;;;;;;8307532;28;20450;-67
2021/12/15 08:19:20;;;;;;;25.40;16.87;;;7.20;99.90;;;;;;8309980;28;20222;-68
2021/12/15 08:23:22;;;;;;;23.40;14.33;;;7.30;99.90;;;;;;8307903;28;20207;-67
2021/12/15 08:27:23;;;;;;;20.83;14.17;;;7.30;99.90;;;;;;8304156;28;20273;-67
2021/12/15 08:31:24;;;;;;;26.23;14.73;;;7.40;99.90;;;;;;8323946;28;20209;-67
2021/12/15 08:35:30;;;;;;;21.10;12.60;;;7.40;99.90;;;;;;8303606;28;20191;-68
2021/12/15 08:39:31;;;;;;;20.80;12.63;;;7.40;99.90;;;;;;8308046;28;20197;-67
2021/12/15 08:43:33;;;;;;;22.27;13.30;;;7.40;99.90;;;;;;8327635;28;20226;-67
2021/12/15 08:47:34;;;;;;;22.87;14.00;;;7.30;99.90;;;;;;8330467;28;20291;-69
2021/12/15 08:51:36;;;;;;;19.50;12.43;;;7.30;99.90;;;;;;8326097;28;20206;-67
2021/12/15 08:55:40;;;;;;;21.50;13.93;;;7.30;99.90;;;;;;8325820;28;20186;-67
2021/12/15 08:59:41;;;;;;;24.43;15.60;;;7.40;99.90;;;;;;8307977;28;20313;-67
2021/12/15 09:03:43;;;;;;;23.13;14.77;;;7.40;99.90;;;;;;8305171;28;20204;-66
2021/12/15 09:07:45;;;;;;;21.27;14.03;;;7.40;99.90;;;;;;8319401;28;20182;-67
2021/12/15 09:11:49;;;;;;;22.80;14.07;;;7.40;99.90;;;;;;8308701;28;20272;-67
2021/12/15 09:15:50;;;;;;;21.03;13.13;;;7.50;99.90;;;;;;8303934;28;20233;-67
2021/12/15 09:19:54;;;;;;;21.97;13.90;;;7.50;99.90;;;;;;8320002;28;20240;-67
2021/12/15 09:23:55;;;;;;;24.47;16.73;;;7.50;99.90;;;;;;8305023;28;20217;-66
2021/12/15 09:27:58;;;;;;;19.33;15.27;;;7.50;99.90;;;;;;8304676;28;20214;-67
2021/12/15 09:31:59;;;;;;;25.33;15.40;;;7.50;99.90;;;;;;8309451;28;20240;-66
2021/12/15 09:36:03;;;;;;;20.83;13.43;;;7.60;99.90;;;;;;8310875;28;20911;-66
2021/12/15 09:40:06;;;;;;;22.07;13.80;;;7.60;99.90;;;;;;8320727;28;20190;-67
2021/12/15 09:44:12;;;;;;;18.50;12.33;;;7.70;99.90;;;;;;8310140;28;20208;-67
2021/12/15 10:18:17;;;;;;;15.50;10.10;;;8.10;99.90;;;;;;8319438;28;20208;-67
2021/12/15 10:22:35;;;;;;;14.77;9.50;;;8.10;99.90;;;;;;8315443;28;20210;-67
2021/12/15 10:26:36;;;;;;;14.90;9.77;;;8.00;99.90;;;;;;8315890;28;20182;-66
2021/12/15 10:31:05;;;;;;;13.97;9.07;;;7.90;99.90;;;;;;8318034;28;20216;-66
2021/12/15 10:35:18;;;;;;;16.27;10.97;;;7.90;99.90;;;;;;8304158;28;20324;-67
2021/12/15 10:39:21;;;;;;;15.30;9.60;;;7.90;99.90;;;;;;8320036;28;20189;-67
2021/12/15 10:43:26;;;;;;;18.60;9.97;;;8.00;99.90;;;;;;8301972;28;20234;-67
2021/12/15 10:47:27;;;;;;;14.27;9.50;;;8.00;99.90;;;;;;8319449;28;20183;-68
2021/12/15 10:51:31;;;;;;;15.43;9.10;;;8.00;99.90;;;;;;8321749;28;20289;-66
2021/12/15 10:55:34;;;;;;;13.27;8.40;;;7.90;99.90;;;;;;8309767;28;20179;-67
2021/12/15 10:59:39;;;;;;;11.47;8.37;;;8.00;99.90;;;;;;8303480;28;20186;-68
2021/12/15 11:03:40;;;;;;;13.00;8.23;;;8.20;99.90;;;;;;8321778;28;20179;-66
2021/12/15 11:07:45;;;;;;;12.17;7.67;;;8.30;99.90;;;;;;8322313;28;20241;-68
2021/12/15 11:12:10;;;;;;;12.33;7.97;;;8.40;99.90;;;;;;8323364;28;20292;-68
2021/12/15 11:16:11;;;;;;;11.13;7.70;;;8.30;99.90;;;;;;8298741;28;20194;-68
2021/12/15 11:20:27;;;;;;;12.23;7.47;;;8.20;99.90;;;;;;8298387;28;20463;-67
2021/12/15 11:24:35;;;;;;;10.73;7.30;;;8.20;99.90;;;;;;8302483;28;20216;-66
2021/12/15 11:28:40;;;;;;;10.97;7.00;;;8.10;99.90;;;;;;8305299;28;20181;-67
2021/12/15 11:32:49;;;;;;;9.47;7.03;;;8.10;99.90;;;;;;8303075;28;20232;-68
2021/12/15 11:36:49;;;;;;;13.03;7.37;;;8.10;99.90;;;;;;8320090;28;20189;-68
2021/12/15 11:40:55;;;;;;;10.50;7.03;;;8.20;99.90;;;;;;8302842;28;20202;-68
2021/12/15 11:45:05;;;;;;;9.83;6.70;;;8.20;99.90;;;;;;8296482;28;20233;-67
2021/12/15 11:49:13;;;;;;;10.97;7.37;;;8.30;99.90;;;;;;8302479;28;20277;-67
2021/12/15 11:53:42;;;;;;;9.53;6.53;;;8.40;99.90;;;;;;8309425;28;20210;-68
2021/12/15 11:57:44;;;;;;;12.50;7.27;;;8.50;99.90;;;;;;8305719;28;20209;-67
2021/12/15 12:01:47;;;;;;;11.30;7.40;;;8.70;99.90;;;;;;8308673;28;20186;-68
2021/12/15 12:05:48;;;;;;;9.53;6.63;;;8.60;99.90;;;;;;8320154;28;20252;-67
2021/12/15 12:09:58;;;;;;;10.53;7.17;;;8.70;99.90;;;;;;8306113;28;20195;-65
2021/12/15 12:14:00;;;;;;;12.43;7.27;;;8.80;99.90;;;;;;8324695;28;20179;-67
2021/12/15 12:18:07;;;;;;;12.03;7.60;;;8.70;99.90;;;;;;8317481;28;20188;-67
2021/12/15 12:22:10;;;;;;;13.00;7.00;;;8.60;99.90;;;;;;8311633;28;20214;-66
2021/12/15 12:26:12;;;;;;;12.43;7.07;;;8.40;99.90;;;;;;8323720;28;20201;-67
2021/12/15 12:30:25;;;;;;;10.73;6.87;;;8.40;99.90;;;;;;8313838;28;20214;-67
2021/12/15 12:34:26;;;;;;;11.00;7.23;;;8.30;99.90;;;;;;8298093;28;20199;-67
2021/12/15 12:38:30;;;;;;;13.37;8.17;;;8.20;99.90;;;;;;8290678;28;20187;-67
2021/12/15 12:42:35;;;;;;;13.67;8.80;;;8.10;99.90;;;;;;8299337;28;20202;-68
2021/12/15 12:46:51;;;;;;;10.17;7.10;;;8.20;99.90;;;;;;8305846;28;20190;-68
2021/12/15 12:59:50;;;;;;;15.27;9.77;;;8.20;99.90;;;;;;8323922;28;20621;-66
2021/12/15 13:03:57;;;;;;;14.73;9.87;;;8.30;99.90;;;;;;8327556;28;20190;-66
2021/12/15 13:08:04;;;;;;;12.07;7.63;;;8.40;99.90;;;;;;8304637;28;20193;-67
2021/12/15 13:12:22;;;;;;;11.43;7.73;;;8.40;99.90;;;;;;8302622;28;20218;-67
2021/12/15 13:16:26;;;;;;;13.80;8.77;;;8.40;99.90;;;;;;8303390;28;20184;-67
2021/12/15 13:20:31;;;;;;;13.23;10.13;;;8.40;99.90;;;;;;8312940;28;20195;-67
2021/12/15 13:29:22;;;;;;;10.63;7.83;;;8.40;99.90;;;;;;8322122;28;20203;-66
2021/12/15 13:33:33;;;;;;;11.97;7.83;;;8.40;99.90;;;;;;8322947;28;20321;-67
2021/12/15 13:37:57;;;;;;;12.30;8.27;;;8.50;99.90;;;;;;8325121;28;20186;-67
2021/12/15 13:45:59;;;;;;;24.33;12.23;;;8.50;99.90;;;;;;8324577;28;20206;-67
2021/12/15 13:50:18;;;;;;;42.07;20.03;;;8.50;99.90;;;;;;8324134;28;20212;-67
2021/12/15 13:54:37;;;;;;;29.33;16.73;;;8.50;99.90;;;;;;8326384;28;20190;-67
2021/12/15 13:58:37;;;;;;;20.73;16.90;;;8.40;99.90;;;;;;8328994;28;20194;-66
2021/12/15 14:03:17;;;;;;;13.63;9.40;;;8.40;99.90;;;;;;8305526;28;20192;-67
2021/12/15 14:07:35;;;;;;;15.30;9.07;;;8.30;99.90;;;;;;8298482;28;20203;-67
2021/12/15 14:11:42;;;;;;;13.10;7.43;;;8.20;99.90;;;;;;8308933;28;20221;-67
2021/12/15 14:15:45;;;;;;;12.67;8.27;;;8.10;99.90;;;;;;8301585;28;20272;-67
2021/12/15 14:19:46;;;;;;;11.67;8.53;;;8.00;99.90;;;;;;8300025;28;20198;-68
2021/12/15 14:23:51;;;;;;;14.07;9.80;;;8.00;99.90;;;;;;8301361;28;20653;-67
2021/12/15 14:27:52;;;;;;;10.70;8.17;;;8.00;99.90;;;;;;8323321;28;20221;-67
2021/12/15 14:31:58;;;;;;;13.63;8.83;;;7.90;99.90;;;;;;8311652;28;20214;-67
2021/12/15 14:36:05;;;;;;;12.70;8.20;;;8.00;99.90;;;;;;8309574;28;20186;-67
2021/12/15 14:40:07;;;;;;;14.27;9.67;;;7.90;99.90;;;;;;8324513;28;20187;-66
2021/12/15 14:44:18;;;;;;;19.17;12.83;;;7.90;99.90;;;;;;8325401;28;20209;-66
2021/12/15 14:48:19;;;;;;;11.93;8.93;;;8.00;99.90;;;;;;8325257;28;20201;-66
2021/12/15 14:52:24;;;;;;;13.57;8.43;;;8.00;99.90;;;;;;8320230;28;20218;-66
2021/12/15 14:56:58;;;;;;;11.13;7.17;;;8.10;99.90;;;;;;8300696;28;20526;-66
2021/12/15 15:00:59;;;;;;;11.37;8.10;;;8.00;99.90;;;;;;8270344;28;20209;-67
2021/12/15 15:05:07;;;;;;;13.00;7.50;;;8.00;99.90;;;;;;8303835;28;20193;-67
2021/12/15 15:09:14;;;;;;;10.37;8.07;;;8.00;99.90;;;;;;8304602;28;20186;-67
2021/12/15 15:13:20;;;;;;;12.00;7.90;;;8.00;99.90;;;;;;8318077;28;20218;-68
2021/12/15 15:17:31;;;;;;;11.27;7.83;;;8.10;99.90;;;;;;8302935;28;20393;-65
2021/12/15 15:21:32;;;;;;;11.40;7.80;;;8.00;99.90;;;;;;8317845;28;20186;-66
2021/12/15 15:25:36;;;;;;;10.97;7.20;;;8.00;99.90;;;;;;8317650;28;20246;-64
2021/12/15 15:29:44;;;;;;;12.30;8.10;;;8.00;99.90;;;;;;8307166;28;20217;-64
2021/12/15 15:33:45;;;;;;;12.73;8.60;;;8.00;99.90;;;;;;8303085;28;20186;-64
2021/12/15 15:37:49;;;;;;;13.57;9.70;;;8.00;99.90;;;;;;8309701;28;20194;-63
2021/12/15 15:41:50;;;;;;;15.93;9.67;;;8.00;99.90;;;;;;8300215;28;20285;-64
2021/12/15 15:45:53;;;;;;;14.90;9.20;;;8.00;99.90;;;;;;8305190;28;20225;-63
2021/12/15 15:50:03;;;;;;;14.37;9.13;;;8.00;99.90;;;;;;8301209;28;20187;-65
2021/12/15 15:54:07;;;;;;;10.37;8.23;;;8.10;99.90;;;;;;8319852;28;20236;-64
2021/12/15 15:58:09;;;;;;;13.73;9.57;;;8.10;99.90;;;;;;8307662;28;20190;-64
2021/12/15 16:02:11;;;;;;;16.83;10.40;;;8.10;99.90;;;;;;8304000;28;20281;-65
2021/12/15 16:06:13;;;;;;;15.10;9.33;;;8.10;99.90;;;;;;8316575;28;20186;-64
2021/12/15 16:10:19;;;;;;;18.20;11.80;;;8.10;99.90;;;;;;8310767;28;20238;-65
2021/12/15 16:14:25;;;;;;;17.73;11.70;;;8.00;99.90;;;;;;8319754;28;20277;-63
2021/12/15 16:18:35;;;;;;;16.67;11.80;;;8.10;99.90;;;;;;8309329;28;20189;-63
2021/12/15 16:22:51;;;;;;;20.40;13.50;;;8.00;99.90;;;;;;8309215;28;20212;-64
2021/12/15 16:26:53;;;;;;;17.47;12.70;;;8.00;99.90;;;;;;8332354;28;20364;-63
2021/12/15 16:30:56;;;;;;;21.13;15.00;;;8.00;99.90;;;;;;8311470;28;20218;-64
2021/12/15 16:35:07;;;;;;;24.50;15.30;;;8.00;99.90;;;;;;8318507;28;20194;-64
2021/12/15 16:39:09;;;;;;;21.40;14.00;;;7.90;99.90;;;;;;8314503;28;20196;-64
2021/12/15 16:43:12;;;;;;;21.00;13.67;;;7.90;99.90;;;;;;8334768;28;20198;-66
2021/12/15 16:47:15;;;;;;;22.33;15.20;;;7.90;99.90;;;;;;8315060;28;20203;-65
2021/12/15 16:51:16;;;;;;;21.07;15.03;;;7.90;99.90;;;;;;8310936;28;20225;-64
2021/12/15 16:55:22;;;;;;;21.67;13.67;;;7.90;99.90;;;;;;8324542;28;20250;-65
2021/12/15 16:59:23;;;;;;;25.73;16.17;;;7.90;99.90;;;;;;8326066;28;20202;-65
2021/12/15 17:03:31;;;;;;;24.80;20.73;;;7.90;99.90;;;;;;8325167;28;20192;-62
2021/12/15 17:07:36;;;;;;;21.23;15.90;;;7.80;99.90;;;;;;8322091;28;20241;-64
2021/12/15 17:11:40;;;;;;;22.33;15.07;;;7.80;99.90;;;;;;8312292;28;20198;-65
2021/12/15 17:19:49;;;;;;;21.73;15.30;;;7.80;99.90;;;;;;8337266;28;20186;-65
2021/12/15 17:23:56;;;;;;;20.97;14.27;;;7.70;99.90;;;;;;8306987;28;20218;-64
2021/12/15 17:28:10;;;;;;;22.13;15.13;;;7.70;99.90;;;;;;8315451;28;20186;-64
2021/12/15 17:32:13;;;;;;;23.23;16.23;;;7.70;99.90;;;;;;8318846;28;20226;-65
2021/12/15 17:36:35;;;;;;;24.47;16.03;;;7.70;99.90;;;;;;8316629;28;20213;-65
2021/12/15 17:40:36;;;;;;;22.93;15.10;;;7.70;99.90;;;;;;8337151;28;20264;-64
2021/12/15 17:44:49;;;;;;;23.73;16.20;;;7.70;99.90;;;;;;8331976;28;20206;-66
2021/12/15 17:49:00;;;;;;;21.87;15.00;;;7.70;99.90;;;;;;8321099;28;20221;-63
2021/12/15 17:53:06;;;;;;;21.87;15.83;;;7.70;99.90;;;;;;8333238;28;20214;-62
2021/12/15 17:57:09;;;;;;;22.43;15.07;;;7.70;99.90;;;;;;8326527;28;20209;-66
2021/12/15 18:01:10;;;;;;;23.90;16.47;;;7.70;99.90;;;;;;8323787;28;20244;-64
2021/12/15 18:05:13;;;;;;;26.90;18.00;;;7.70;99.90;;;;;;8300989;28;20194;-64
2021/12/15 18:09:14;;;;;;;24.10;17.87;;;7.70;99.90;;;;;;8308219;28;20273;-65
2021/12/15 18:13:19;;;;;;;24.37;16.20;;;7.70;99.90;;;;;;8321310;28;20241;-64
2021/12/15 18:17:22;;;;;;;23.77;15.67;;;7.70;99.90;;;;;;8313613;28;20209;-66
2021/12/15 18:21:32;;;;;;;25.83;16.77;;;7.60;99.90;;;;;;8325947;28;20194;-65
2021/12/15 18:25:35;;;;;;;21.27;15.03;;;7.70;99.90;;;;;;8326633;28;20213;-64
2021/12/15 18:29:39;;;;;;;22.33;15.10;;;7.70;99.90;;;;;;8324125;28;20184;-64
2021/12/15 18:33:40;;;;;;;21.67;15.50;;;7.70;99.90;;;;;;8309354;28;20206;-64
2021/12/15 18:37:42;;;;;;;25.00;16.60;;;7.70;99.90;;;;;;8309251;28;20271;-64
2021/12/15 18:41:46;;;;;;;23.37;16.90;;;7.70;99.90;;;;;;8306525;28;20190;-64
2021/12/15 18:45:50;;;;;;;25.07;17.13;;;7.70;99.90;;;;;;8303919;28;20222;-63
2021/12/15 18:49:58;;;;;;;28.37;17.63;;;7.70;99.90;;;;;;8306680;28;20290;-64
2021/12/15 18:53:59;;;;;;;21.17;14.73;;;7.70;99.90;;;;;;8302901;28;20190;-64
2021/12/15 18:58:01;;;;;;;23.80;15.27;;;7.70;99.90;;;;;;8329423;28;20197;-65
2021/12/15 19:02:05;;;;;;;22.80;15.33;;;7.70;99.90;;;;;;8306367;28;20225;-64
2021/12/15 19:06:07;;;;;;;19.57;14.07;;;7.70;99.90;;;;;;8320902;28;20198;-64
2021/12/15 19:10:12;;;;;;;20.70;14.37;;;7.70;99.90;;;;;;8317889;28;20218;-64
2021/12/15 19:14:15;;;;;;;23.13;14.70;;;7.70;99.90;;;;;;8305624;28;20183;-64
2021/12/15 19:18:16;;;;;;;21.87;14.90;;;7.70;99.90;;;;;;8300604;28;20182;-65
2021/12/15 19:22:21;;;;;;;17.67;12.60;;;7.70;99.90;;;;;;8313726;28;20233;-64
2021/12/15 19:26:22;;;;;;;18.80;13.07;;;7.70;99.90;;;;;;8314577;28;20206;-64
2021/12/15 19:30:36;;;;;;;16.70;11.87;;;7.70;99.90;;;;;;8299971;28;20217;-64
2021/12/15 19:34:37;;;;;;;17.23;12.13;;;7.70;99.90;;;;;;8316708;28;20186;-66
2021/12/15 19:38:39;;;;;;;20.77;13.57;;;7.70;99.90;;;;;;8326149;28;20265;-65
2021/12/15 19:42:40;;;;;;;22.40;14.93;;;7.70;99.90;;;;;;8310667;28;20272;-64
2021/12/15 19:46:43;;;;;;;19.20;12.37;;;7.70;99.90;;;;;;8331769;28;20257;-65
2021/12/15 19:50:46;;;;;;;20.13;13.57;;;7.70;99.90;;;;;;8304569;28;20210;-64
2021/12/15 19:54:47;;;;;;;22.50;17.30;;;7.70;99.90;;;;;;8304628;28;20186;-64
2021/12/15 19:58:51;;;;;;;17.87;12.90;;;7.70;99.90;;;;;;8308209;28;20210;-63
2021/12/15 20:02:55;;;;;;;16.00;11.90;;;7.70;99.90;;;;;;8323010;28;20248;-64
2021/12/15 20:06:57;;;;;;;16.20;11.67;;;7.70;99.90;;;;;;8313574;28;20316;-64
2021/12/15 20:11:02;;;;;;;16.03;11.37;;;7.70;99.90;;;;;;8295808;28;20305;-65
2021/12/15 20:15:09;;;;;;;16.60;12.30;;;7.60;99.90;;;;;;8282183;28;20198;-65
2021/12/15 20:19:11;;;;;;;15.43;11.20;;;7.60;99.90;;;;;;8306877;28;20193;-64
2021/12/15 20:23:14;;;;;;;13.87;10.67;;;7.60;99.90;;;;;;8311581;28;20206;-64
2021/12/15 20:27:20;;;;;;;18.53;15.40;;;7.70;99.90;;;;;;8302207;28;20190;-63
2021/12/15 20:31:23;;;;;;;16.13;11.33;;;7.60;99.90;;;;;;8318905;28;20198;-64
2021/12/15 20:35:26;;;;;;;14.67;11.10;;;7.70;99.90;;;;;;8324362;28;20268;-64
2021/12/15 20:39:27;;;;;;;14.20;9.73;;;7.70;99.90;;;;;;8315610;28;20191;-64
2021/12/15 20:43:28;;;;;;;14.03;10.27;;;7.70;99.90;;;;;;8320642;28;20293;-64
2021/12/15 20:47:29;;;;;;;14.17;10.07;;;7.70;99.90;;;;;;8314378;28;20187;-65
2021/12/15 20:51:30;;;;;;;14.80;10.87;;;7.60;99.90;;;;;;8304920;28;20217;-65
2021/12/15 20:55:31;;;;;;;14.50;9.97;;;7.70;99.90;;;;;;8322430;28;20182;-64
2021/12/15 20:59:33;;;;;;;15.73;9.87;;;7.70;99.90;;;;;;8304192;28;20259;-65
2021/12/15 21:03:35;;;;;;;13.97;9.47;;;7.70;99.90;;;;;;8324844;28;20198;-64
2021/12/15 21:07:38;;;;;;;12.03;9.07;;;7.70;99.90;;;;;;8317574;28;20263;-64
2021/12/15 21:11:39;;;;;;;14.73;9.93;;;7.70;99.90;;;;;;8315654;28;20221;-64
2021/12/15 21:15:41;;;;;;;15.00;10.07;;;7.80;99.90;;;;;;8301731;28;20186;-64
2021/12/15 21:19:42;;;;;;;13.00;9.17;;;7.70;99.90;;;;;;8314531;28;20186;-64
2021/12/15 21:23:43;;;;;;;11.83;8.33;;;7.70;99.90;;;;;;8321701;28;20214;-64
2021/12/15 21:27:47;;;;;;;10.37;7.70;;;7.70;99.90;;;;;;8322190;28;20637;-65
2021/12/15 21:31:48;;;;;;;10.63;7.83;;;7.70;99.90;;;;;;8325866;28;20226;-65
2021/12/15 21:35:49;;;;;;;10.37;7.73;;;7.70;99.90;;;;;;8304549;28;20194;-64
2021/12/15 21:39:49;;;;;;;10.47;7.50;;;7.70;99.90;;;;;;8323154;28;20214;-65
2021/12/15 21:43:52;;;;;;;11.83;7.97;;;7.70;99.90;;;;;;8324966;28;20206;-64
2021/12/15 21:47:53;;;;;;;11.37;8.10;;;7.70;99.90;;;;;;8327785;28;20218;-64
2021/12/15 21:51:56;;;;;;;11.23;8.57;;;7.70;99.90;;;;;;8307693;28;20264;-63
2021/12/15 21:55:57;;;;;;;10.80;8.73;;;7.70;99.90;;;;;;8303715;28;20195;-64
2021/12/15 21:59:58;;;;;;;11.80;9.00;;;7.70;99.90;;;;;;8317540;28;20191;-64
2021/12/15 22:03:59;;;;;;;13.43;10.43;;;7.80;99.90;;;;;;8301308;28;20190;-63
2021/12/15 22:08:01;;;;;;;13.43;9.47;;;7.70;99.90;;;;;;8307894;28;20194;-64
2021/12/15 22:12:02;;;;;;;13.17;10.50;;;7.70;99.90;;;;;;8334933;28;20214;-64
2021/12/15 22:16:06;;;;;;;15.77;11.50;;;7.70;99.90;;;;;;8308935;28;20317;-66
2021/12/15 22:20:11;;;;;;;18.00;12.23;;;7.60;99.90;;;;;;8305097;28;20191;-65
2021/12/15 22:24:20;;;;;;;16.00;11.90;;;7.60;99.90;;;;;;8309364;28;20206;-64
2021/12/15 22:28:21;;;;;;;17.80;11.53;;;7.60;99.90;;;;;;8317415;28;20254;-64
2021/12/15 22:32:27;;;;;;;15.70;11.00;;;7.50;99.90;;;;;;8321546;28;20221;-64